Time;durP1;ratioP1;P1;durP2;ratioP2;P2;SDS_P1;SDS_P2;PMS_P1;PMS_P2;Temp;Humidity;BMP_temperature;BMP_pressure;BME280_temperature;BME280_humidity;BME280_pressure;Samples;Min_cycle;Max_cycle;Signal;HPM_P1;HPM_P2
2023/06/10 00:01:24;;;;;;;9.10;8.30;;;;;;;19.52;50.34;95821.00;4987813;28;20215;-70
2023/06/10 00:03:51;;;;;;;8.90;7.67;;;;;;;19.64;50.04;95821.72;4987447;28;20236;-70
2023/06/10 00:06:17;;;;;;;8.53;7.70;;;;;;;19.51;50.44;95819.31;4988257;28;20546;-69
2023/06/10 00:08:42;;;;;;;22.63;8.60;;;;;;;19.58;50.47;95816.94;4988003;28;20412;-70
2023/06/10 00:11:08;;;;;;;8.10;7.40;;;;;;;19.43;50.64;95821.81;4987964;28;20231;-70
2023/06/10 00:13:33;;;;;;;8.67;7.97;;;;;;;19.42;50.58;95820.16;4987439;28;20176;-70
2023/06/10 00:15:58;;;;;;;8.30;7.60;;;;;;;19.38;50.89;95824.06;4987553;28;20208;-70
2023/06/10 00:18:26;;;;;;;8.70;7.90;;;;;;;19.34;50.91;95817.31;4987630;28;20256;-70
2023/06/10 00:20:54;;;;;;;8.07;7.00;;;;;;;19.17;51.39;95821.47;4987535;28;20204;-71
2023/06/10 00:23:20;;;;;;;8.37;7.50;;;;;;;19.14;51.61;95824.41;4987083;28;20955;-70
2023/06/10 00:25:46;;;;;;;10.17;7.90;;;;;;;19.19;51.57;95820.34;4987240;28;20415;-70
2023/06/10 00:28:11;;;;;;;8.67;7.87;;;;;;;19.21;51.15;95821.06;4987649;28;20405;-70
2023/06/10 00:30:36;;;;;;;8.47;7.70;;;;;;;19.04;51.82;95811.06;4987468;28;20632;-71
2023/06/10 00:33:02;;;;;;;7.20;6.60;;;;;;;19.18;51.59;95816.00;4987866;28;20169;-71
2023/06/10 00:35:27;;;;;;;8.20;7.40;;;;;;;19.08;52.04;95817.78;4987162;28;20564;-70
2023/06/10 00:37:53;;;;;;;8.00;7.20;;;;;;;19.06;51.78;95813.56;4990250;28;20252;-71
2023/06/10 00:40:18;;;;;;;8.57;7.00;;;;;;;18.92;52.31;95812.97;4993920;28;20335;-70
2023/06/10 00:42:43;;;;;;;10.27;7.60;;;;;;;19.02;52.03;95807.69;5007458;28;20168;-70
2023/06/10 00:45:09;;;;;;;6.77;6.23;;;;;;;18.89;52.36;95815.03;5016382;28;20169;-70
2023/06/10 00:47:35;;;;;;;10.53;8.13;;;;;;;18.87;52.32;95814.31;5013338;28;20173;-70
2023/06/10 00:50:01;;;;;;;7.43;6.73;;;;;;;18.99;52.03;95803.47;5012113;28;20208;-70
2023/06/10 00:52:28;;;;;;;7.40;6.70;;;;;;;18.81;52.57;95810.38;5010548;28;20412;-70
2023/06/10 00:54:54;;;;;;;7.63;6.90;;;;;;;18.89;52.32;95807.06;4998729;28;20456;-70
2023/06/10 00:57:20;;;;;;;8.70;7.00;;;;;;;18.85;52.36;95806.50;4993782;28;20500;-70
2023/06/10 00:59:48;;;;;;;9.30;7.03;;;;;;;18.87;52.65;95799.22;4993414;28;20597;-70
2023/06/10 01:02:14;;;;;;;9.40;8.37;;;;;;;18.88;52.41;95802.72;4993689;28;20448;-71
2023/06/10 01:04:39;;;;;;;6.20;5.70;;;;;;;18.76;53.09;95796.63;4993365;28;20562;-71
2023/06/10 01:07:37;;;;;;;7.07;6.47;;;;;;;18.83;52.89;95811.09;4993563;28;20280;-71
2023/06/10 01:10:28;;;;;;;10.60;7.90;;;;;;;18.86;52.84;95804.69;4993371;28;20205;-71
2023/06/10 01:13:06;;;;;;;7.73;7.03;;;;;;;18.54;53.86;95801.13;4993410;28;20419;-70
2023/06/10 01:15:32;;;;;;;6.77;6.27;;;;;;;18.53;53.94;95803.91;4993313;28;20459;-70
2023/06/10 01:18:01;;;;;;;7.63;6.93;;;;;;;18.64;53.45;95806.50;4993540;28;21106;-71
2023/06/10 01:20:28;;;;;;;7.30;6.70;;;;;;;18.44;54.34;95812.66;4993221;28;21233;-71
2023/06/10 01:22:57;;;;;;;8.03;7.33;;;;;;;18.56;54.12;95804.47;4993393;28;20424;-70
2023/06/10 01:25:28;;;;;;;8.03;7.23;;;;;;;18.49;54.24;95811.28;4993048;28;20511;-70
2023/06/10 01:28:26;;;;;;;7.80;7.00;;;;;;;18.32;55.17;95811.88;4993377;28;20407;-70
2023/06/10 01:31:07;;;;;;;9.90;8.17;;;;;;;18.49;54.82;95815.75;4993625;28;20510;-70
2023/06/10 01:33:36;;;;;;;8.87;8.07;;;;;;;18.53;54.62;95812.72;4993141;28;20426;-71
2023/06/10 01:36:03;;;;;;;11.03;6.77;;;;;;;18.32;55.37;95818.03;4993343;28;20879;-71
2023/06/10 01:38:36;;;;;;;7.73;6.80;;;;;;;18.32;55.60;95818.03;4993338;28;20423;-71
2023/06/10 01:41:03;;;;;;;7.73;7.03;;;;;;;18.34;55.64;95821.41;4993268;28;20416;-70
2023/06/10 01:43:28;;;;;;;8.83;8.03;;;;;;;18.29;55.52;95825.44;4993105;28;21025;-71
2023/06/10 01:45:54;;;;;;;8.53;7.73;;;;;;;18.33;55.81;95822.38;4993043;28;20412;-71
2023/06/10 01:48:19;;;;;;;9.53;7.37;;;;;;;18.40;55.76;95820.03;4993119;28;20736;-71
2023/06/10 01:50:45;;;;;;;10.70;8.63;;;;;;;18.37;55.57;95829.09;4989168;28;20200;-70
2023/06/10 01:53:10;;;;;;;8.30;7.57;;;;;;;18.40;55.56;95812.94;4990169;28;20234;-71
2023/06/10 01:55:35;;;;;;;7.40;6.73;;;;;;;18.39;55.53;95821.84;4989787;28;21014;-70
2023/06/10 01:58:01;;;;;;;10.53;7.40;;;;;;;18.45;55.62;95824.97;4990274;28;20308;-70
2023/06/10 02:00:26;;;;;;;8.07;7.37;;;;;;;18.33;55.88;95827.69;4989870;28;20203;-71
2023/06/10 02:02:52;;;;;;;9.40;8.40;;;;;;;18.24;56.48;95825.81;4989927;28;20593;-71
2023/06/10 02:05:17;;;;;;;9.90;7.57;;;;;;;18.40;55.86;95830.66;4989970;28;20169;-70
2023/06/10 02:07:43;;;;;;;8.00;7.30;;;;;;;18.19;56.95;95830.66;4989890;28;20215;-70
2023/06/10 02:10:09;;;;;;;8.37;7.33;;;;;;;18.23;56.45;95829.41;4990341;28;20503;-71
2023/06/10 02:12:34;;;;;;;8.93;8.13;;;;;;;17.87;57.74;95828.84;4991051;28;20207;-70
2023/06/10 02:14:59;;;;;;;9.30;8.40;;;;;;;18.10;57.46;95826.13;4997726;28;20657;-71
2023/06/10 02:17:26;;;;;;;8.50;7.63;;;;;;;18.20;56.78;95825.22;4998574;28;20177;-70
2023/06/10 02:19:54;;;;;;;8.17;7.33;;;;;;;18.10;57.17;95826.97;4998951;28;20199;-71
2023/06/10 02:22:21;;;;;;;8.73;7.13;;;;;;;18.01;57.46;95830.38;4990216;28;20432;-70
2023/06/10 02:24:47;;;;;;;9.00;8.10;;;;;;;17.78;58.34;95832.22;4990042;28;20400;-71
2023/06/10 02:27:12;;;;;;;8.27;7.43;;;;;;;17.85;58.54;95829.94;4989582;28;20423;-71
2023/06/10 02:29:38;;;;;;;9.33;8.50;;;;;;;17.94;58.11;95831.84;4989687;28;20764;-71
2023/06/10 02:32:04;;;;;;;10.03;8.20;;;;;;;17.92;57.98;95837.28;4989551;28;20188;-73
2023/06/10 02:34:29;;;;;;;8.87;7.97;;;;;;;17.69;59.08;95839.16;4989260;28;20205;-72
2023/06/10 02:36:55;;;;;;;15.70;8.57;;;;;;;17.93;58.41;95838.16;4990240;28;21161;-71
2023/06/10 02:39:22;;;;;;;10.43;7.40;;;;;;;17.96;58.26;95846.69;4989036;28;20197;-71
2023/06/10 02:41:47;;;;;;;8.87;8.07;;;;;;;17.83;58.62;95838.03;4989148;28;20260;-71
2023/06/10 02:44:13;;;;;;;14.60;8.97;;;;;;;17.65;59.03;95839.53;4988942;28;20542;-70
2023/06/10 02:46:38;;;;;;;12.17;9.70;;;;;;;17.59;59.58;95842.66;4989170;28;20173;-71
2023/06/10 02:49:03;;;;;;;8.43;7.70;;;;;;;17.44;59.79;95840.28;4989025;28;20418;-70
2023/06/10 02:51:29;;;;;;;8.53;7.77;;;;;;;17.72;58.91;95841.53;4989222;28;20669;-71
2023/06/10 02:53:54;;;;;;;9.10;7.93;;;;;;;17.66;59.00;95843.84;4988633;28;20208;-71
2023/06/10 02:56:19;;;;;;;10.20;7.30;;;;;;;17.72;59.36;95848.66;4988879;28;20185;-70
2023/06/10 02:58:45;;;;;;;9.87;8.87;;;;;;;17.68;59.40;95855.19;4988972;28;20492;-70
2023/06/10 03:01:11;;;;;;;10.63;8.67;;;;;;;17.89;58.49;95850.81;4988488;28;20266;-71
2023/06/10 03:03:40;;;;;;;9.43;8.30;;;;;;;17.81;59.17;95847.97;4988321;28;20761;-70
2023/06/10 03:06:06;;;;;;;14.77;9.67;;;;;;;17.62;60.07;95845.06;4988505;28;20219;-71
2023/06/10 03:08:31;;;;;;;9.50;8.60;;;;;;;17.77;59.63;95849.97;4988517;28;20456;-70
2023/06/10 03:10:57;;;;;;;11.80;8.27;;;;;;;17.89;59.22;95847.31;4989131;28;20228;-71
2023/06/10 03:13:23;;;;;;;11.53;8.77;;;;;;;17.94;59.25;95848.63;4988556;28;20176;-70
2023/06/10 03:15:49;;;;;;;11.77;9.37;;;;;;;17.74;59.44;95844.06;4988353;28;20248;-71
2023/06/10 03:18:14;;;;;;;8.27;7.57;;;;;;;17.68;60.12;95848.06;4988552;28;20512;-70
2023/06/10 03:20:40;;;;;;;10.37;9.37;;;;;;;17.67;59.81;95850.81;4988448;28;20374;-70
2023/06/10 03:23:08;;;;;;;9.20;8.40;;;;;;;17.74;59.78;95859.97;4988235;28;20665;-71
2023/06/10 03:25:33;;;;;;;9.17;8.13;;;;;;;17.90;59.18;95854.31;4988253;28;20183;-70
2023/06/10 03:27:59;;;;;;;9.10;8.07;;;;;;;17.64;60.22;95857.22;4988445;28;20893;-71
2023/06/10 03:30:25;;;;;;;14.33;8.33;;;;;;;17.60;60.64;95860.25;4988377;28;20212;-71
2023/06/10 03:32:50;;;;;;;12.60;8.53;;;;;;;17.55;60.80;95858.84;4988657;28;20169;-72
2023/06/10 03:35:17;;;;;;;11.63;9.17;;;;;;;17.53;60.79;95863.41;4988113;28;20211;-70
2023/06/10 03:37:42;;;;;;;12.30;8.77;;;;;;;17.54;60.74;95867.75;4988315;28;20176;-70
2023/06/10 03:40:08;;;;;;;9.23;8.10;;;;;;;17.65;60.21;95871.38;4988141;28;20920;-71
2023/06/10 03:42:34;;;;;;;8.43;7.63;;;;;;;17.71;59.79;95860.22;4988134;28;20176;-71
2023/06/10 03:45:00;;;;;;;10.20;8.50;;;;;;;17.65;60.33;95866.88;4987578;28;20196;-70
2023/06/10 03:47:25;;;;;;;7.83;7.03;;;;;;;17.85;59.81;95867.13;4988071;28;20436;-71
2023/06/10 03:49:51;;;;;;;8.60;7.90;;;;;;;17.77;60.13;95871.19;4988184;28;20262;-71
2023/06/10 03:52:17;;;;;;;9.93;8.93;;;;;;;17.82;59.59;95873.50;4988112;28;20205;-67
2023/06/10 03:54:43;;;;;;;14.37;8.60;;;;;;;17.80;60.23;95875.41;4986420;28;20205;-71
2023/06/10 03:57:08;;;;;;;13.33;8.80;;;;;;;17.72;60.03;95893.78;4988054;28;20901;-70
2023/06/10 03:59:33;;;;;;;18.37;9.97;;;;;;;18.15;58.77;95882.34;4987901;28;20999;-71
2023/06/10 04:02:00;;;;;;;16.90;9.00;;;;;;;18.28;58.27;95879.50;4987641;28;20181;-71
2023/06/10 04:04:25;;;;;;;8.90;8.00;;;;;;;18.33;58.16;95880.81;4987519;28;20173;-71
2023/06/10 04:06:51;;;;;;;9.00;7.90;;;;;;;18.22;58.28;95883.53;4987712;28;20844;-70
2023/06/10 04:09:16;;;;;;;10.77;8.00;;;;;;;18.28;58.39;95888.31;4987511;28;20192;-71
2023/06/10 04:11:42;;;;;;;10.60;8.93;;;;;;;18.45;58.00;95883.41;4987408;28;20181;-71
2023/06/10 04:14:08;;;;;;;16.73;8.50;;;;;;;18.65;57.10;95893.22;4986784;28;20233;-71
2023/06/10 04:16:35;;;;;;;14.97;7.90;;;;;;;19.00;56.40;95887.59;4987944;28;20177;-71
2023/06/10 04:19:00;;;;;;;10.57;8.40;;;;;;;19.21;55.69;95884.91;4987471;28;20436;-70
2023/06/10 04:21:27;;;;;;;9.20;8.23;;;;;;;19.03;56.09;95886.47;4987383;28;20423;-70
2023/06/10 04:23:52;;;;;;;17.30;9.10;;;;;;;19.04;56.01;95889.03;4987487;28;20186;-71
2023/06/10 04:26:18;;;;;;;10.00;8.17;;;;;;;19.12;55.64;95885.69;4987552;28;20486;-71
2023/06/10 04:28:43;;;;;;;7.97;7.27;;;;;;;19.25;55.20;95888.13;4987131;28;20264;-71
2023/06/10 04:31:09;;;;;;;9.40;7.80;;;;;;;19.29;55.42;95888.72;4987543;28;20176;-71
2023/06/10 04:33:35;;;;;;;8.73;7.83;;;;;;;19.40;55.32;95893.94;4986882;28;20207;-71
2023/06/10 04:36:00;;;;;;;7.87;7.13;;;;;;;19.50;55.03;95892.16;4987058;28;20315;-70
2023/06/10 04:38:26;;;;;;;9.70;8.80;;;;;;;19.41;54.91;95890.28;4987579;28;20201;-71
2023/06/10 04:40:52;;;;;;;8.40;7.60;;;;;;;19.45;54.91;95897.03;4987724;28;20909;-70
2023/06/10 04:43:17;;;;;;;9.50;7.60;;;;;;;19.62;54.59;95890.22;4987676;28;20619;-70
2023/06/10 04:45:45;;;;;;;14.03;8.73;;;;;;;19.59;54.85;95896.66;4987650;28;20187;-70
2023/06/10 04:48:11;;;;;;;17.80;9.13;;;;;;;19.56;54.80;95893.41;4987880;28;20180;-70
2023/06/10 04:50:38;;;;;;;16.10;8.60;;;;;;;19.44;55.27;95890.88;4987757;28;20432;-71
2023/06/10 04:53:04;;;;;;;9.00;8.10;;;;;;;19.51;55.29;95903.63;4987715;28;20184;-71
2023/06/10 04:55:29;;;;;;;10.50;8.10;;;;;;;19.70;54.54;95900.22;4987253;28;20539;-71
2023/06/10 04:57:55;;;;;;;8.80;7.90;;;;;;;19.03;56.57;95899.78;4987371;28;20204;-71
2023/06/10 05:00:21;;;;;;;8.50;7.60;;;;;;;19.12;56.13;95893.66;4987274;28;20208;-70
2023/06/10 05:02:49;;;;;;;9.17;8.37;;;;;;;19.46;55.11;95904.91;4987126;28;20537;-70
2023/06/10 05:05:16;;;;;;;15.53;9.70;;;;;;;19.85;54.28;95898.88;4986726;28;20233;-71
2023/06/10 05:07:41;;;;;;;9.80;8.80;;;;;;;19.68;54.65;95905.69;4987449;28;20515;-71
2023/06/10 05:10:07;;;;;;;9.27;8.13;;;;;;;19.62;54.83;95904.38;4987348;28;20439;-71
2023/06/10 05:12:32;;;;;;;11.30;8.53;;;;;;;19.16;56.26;95912.88;4985921;28;20510;-70
2023/06/10 05:14:58;;;;;;;17.10;9.30;;;;;;;19.60;55.20;95905.50;4986166;28;20296;-70
2023/06/10 05:17:25;;;;;;;9.47;7.57;;;;;;;19.86;54.58;95917.34;4986843;28;20268;-71
2023/06/10 05:19:50;;;;;;;17.50;8.63;;;;;;;19.72;54.87;95909.75;4986730;28;20208;-71
2023/06/10 05:22:17;;;;;;;17.17;8.93;;;;;;;19.57;55.38;95914.59;4986736;28;20921;-70
2023/06/10 05:24:43;;;;;;;10.03;9.03;;;;;;;19.23;55.92;95911.38;4987713;28;20260;-70
2023/06/10 05:27:09;;;;;;;10.80;9.10;;;;;;;19.77;55.15;95912.00;4990606;28;20511;-70
2023/06/10 05:29:35;;;;;;;8.97;8.07;;;;;;;19.83;54.63;95919.47;4990632;28;20198;-70
2023/06/10 05:32:02;;;;;;;13.50;9.53;;;;;;;20.03;54.25;95921.22;4989539;28;20184;-71
2023/06/10 05:34:29;;;;;;;13.33;8.60;;;;;;;19.98;54.20;95919.91;4990494;28;20973;-70
2023/06/10 05:36:54;;;;;;;9.30;8.10;;;;;;;19.91;54.85;95916.13;4990877;28;21032;-69
2023/06/10 05:39:20;;;;;;;10.30;9.40;;;;;;;20.02;54.64;95924.00;4990581;28;20439;-70
2023/06/10 05:41:46;;;;;;;18.27;9.40;;;;;;;19.65;55.77;95919.22;4990537;28;20184;-69
2023/06/10 05:44:11;;;;;;;9.90;8.83;;;;;;;20.02;54.89;95919.50;4990000;28;20196;-71
2023/06/10 05:46:37;;;;;;;11.03;9.80;;;;;;;19.97;54.64;95919.06;4990291;28;20184;-70
2023/06/10 05:49:02;;;;;;;9.43;8.57;;;;;;;19.71;55.52;95920.56;4990144;28;20242;-69
2023/06/10 05:51:28;;;;;;;10.77;9.67;;;;;;;19.55;56.50;95923.69;4990386;28;20215;-70
2023/06/10 05:53:54;;;;;;;11.43;8.40;;;;;;;20.05;55.02;95935.19;4990312;28;20200;-71
2023/06/10 05:56:21;;;;;;;9.87;8.87;;;;;;;20.70;52.84;95929.41;4990859;28;20897;-71
2023/06/10 05:58:46;;;;;;;8.70;7.90;;;;;;;20.25;54.10;95929.94;4990295;28;20422;-71
2023/06/10 06:01:12;;;;;;;9.77;8.90;;;;;;;20.02;54.68;95937.31;4990201;28;21270;-71
2023/06/10 06:03:37;;;;;;;10.33;9.27;;;;;;;20.21;54.68;95934.69;4990332;28;20211;-70
2023/06/10 06:06:03;;;;;;;16.00;8.93;;;;;;;20.76;53.01;95936.81;4990751;28;20169;-71
2023/06/10 06:08:29;;;;;;;8.27;7.47;;;;;;;21.01;52.66;95930.06;4990266;28;20227;-71
2023/06/10 06:10:55;;;;;;;12.67;8.67;;;;;;;21.56;51.03;95929.38;4990165;28;20909;-70
2023/06/10 06:13:20;;;;;;;9.30;8.50;;;;;;;20.99;52.47;95941.88;4989881;28;20415;-70
2023/06/10 06:15:45;;;;;;;11.73;7.77;;;;;;;21.26;51.92;95931.28;4989847;28;20235;-70
2023/06/10 06:18:11;;;;;;;10.00;9.00;;;;;;;20.85;52.94;95932.47;4989958;28;20796;-70
2023/06/10 06:20:36;;;;;;;15.80;9.50;;;;;;;;;;4989700;28;20219;-69
2023/06/10 06:23:02;;;;;;;9.53;8.73;;;;;;;21.36;51.86;95928.59;4989830;28;20530;-70
2023/06/10 06:25:28;;;;;;;11.57;9.07;;;;;;;21.55;51.67;95927.72;4989165;28;20216;-70
2023/06/10 06:27:53;;;;;;;15.30;9.23;;;;;;;22.04;50.35;95931.00;4989698;28;20474;-71
2023/06/10 06:30:19;;;;;;;11.33;9.20;;;;;;;22.22;49.39;95923.00;4989659;28;20209;-70
2023/06/10 06:32:45;;;;;;;10.70;9.60;;;;;;;22.15;50.13;95921.91;4989640;28;20176;-70
2023/06/10 06:35:10;;;;;;;11.50;9.57;;;;;;;21.74;51.31;95929.44;4988899;28;20213;-70
2023/06/10 06:37:36;;;;;;;13.93;9.83;;;;;;;21.90;51.11;95928.81;4989330;28;20235;-71
2023/06/10 06:40:02;;;;;;;10.23;9.23;;;;;;;22.11;50.55;95925.84;4989479;28;20291;-71
2023/06/10 06:42:28;;;;;;;38.33;10.97;;;;;;;22.21;50.44;95929.38;4989199;28;20189;-70
2023/06/10 06:44:53;;;;;;;10.73;9.10;;;;;;;22.10;50.67;95925.03;4989161;28;20483;-70
2023/06/10 06:47:19;;;;;;;9.67;8.67;;;;;;;21.73;51.89;95931.28;4989119;28;20173;-71
2023/06/10 06:49:47;;;;;;;15.00;9.43;;;;;;;22.17;50.87;95920.75;4989188;28;20218;-69
2023/06/10 06:52:14;;;;;;;9.40;8.60;;;;;;;22.19;50.45;95933.97;4989569;28;20466;-69
2023/06/10 06:54:40;;;;;;;10.40;9.33;;;;;;;22.16;50.47;95932.47;4989046;28;20549;-71
2023/06/10 06:57:06;;;;;;;10.63;8.77;;;;;;;22.22;50.74;95928.34;4989246;28;20495;-71
2023/06/10 06:59:32;;;;;;;12.73;10.80;;;;;;;22.16;51.23;95932.47;4988797;28;20570;-70
2023/06/10 07:01:58;;;;;;;15.20;8.40;;;;;;;23.20;48.37;95920.38;4988649;28;20431;-70
2023/06/10 07:04:23;;;;;;;10.10;9.10;;;;;;;22.36;49.77;95935.03;4988570;28;20688;-71
2023/06/10 07:06:49;;;;;;;12.73;9.83;;;;;;;21.67;51.96;95945.22;4988822;28;20977;-71
2023/06/10 07:09:14;;;;;;;10.93;9.80;;;;;;;21.36;52.82;95941.94;4988984;28;20248;-71
2023/06/10 07:11:39;;;;;;;14.03;9.10;;;;;;;22.47;50.69;95928.63;4988833;28;20581;-72
2023/06/10 07:14:06;;;;;;;33.87;10.07;;;;;;;22.99;49.33;95932.28;4988817;28;20197;-69
2023/06/10 07:16:32;;;;;;;10.57;9.57;;;;;;;22.05;51.47;95940.66;4989121;28;20181;-70
2023/06/10 07:18:57;;;;;;;11.90;9.97;;;;;;;21.84;51.67;95935.56;4988999;28;20910;-71
2023/06/10 07:21:23;;;;;;;11.73;10.63;;;;;;;22.58;50.41;95928.38;4988598;28;20164;-71
2023/06/10 07:23:48;;;;;;;10.90;9.47;;;;;;;22.86;49.32;95930.97;4988456;28;20180;-71
2023/06/10 07:26:14;;;;;;;11.60;9.37;;;;;;;23.10;48.65;95936.53;4988545;28;20618;-71
2023/06/10 07:28:40;;;;;;;21.40;9.77;;;;;;;23.41;48.17;95936.06;4988713;28;20538;-71
2023/06/10 07:31:07;;;;;;;10.77;9.67;;;;;;;22.79;48.55;95942.28;4989467;28;20443;-71
2023/06/10 07:33:33;;;;;;;10.57;9.53;;;;;;;22.36;49.74;95937.69;4988825;28;20177;-71
2023/06/10 07:35:58;;;;;;;14.27;9.10;;;;;;;23.03;49.34;95930.13;4989376;28;20467;-71
2023/06/10 07:38:25;;;;;;;17.00;9.00;;;;;;;23.59;47.43;95925.28;4989133;28;20220;-72
2023/06/10 07:40:50;;;;;;;10.23;8.77;;;;;;;23.44;47.70;95933.09;4989553;28;20538;-71
2023/06/10 07:43:15;;;;;;;10.03;9.17;;;;;;;23.07;48.62;95941.38;4999322;28;20408;-70
2023/06/10 07:45:41;;;;;;;11.33;8.90;;;;;;;23.05;48.54;95933.47;5004786;28;20165;-69
2023/06/10 07:48:07;;;;;;;10.60;8.80;;;;;;;23.07;47.98;95936.84;5002323;28;20172;-70
2023/06/10 07:50:32;;;;;;;10.57;9.50;;;;;;;22.78;49.28;95939.78;4998074;28;20196;-71
2023/06/10 07:52:58;;;;;;;13.70;7.93;;;;;;;23.58;47.83;95934.34;5002578;28;20419;-71
2023/06/10 07:55:25;;;;;;;13.43;10.07;;;;;;;23.85;47.30;95936.00;4999319;28;20288;-71
2023/06/10 07:57:51;;;;;;;14.13;8.67;;;;;;;24.18;46.39;95933.44;4996288;28;20169;-70
2023/06/10 08:00:17;;;;;;;10.30;9.20;;;;;;;23.46;47.65;95934.59;4988287;28;20428;-70
2023/06/10 08:02:42;;;;;;;11.23;9.60;;;;;;;23.94;46.93;95920.78;4988168;28;20177;-70
2023/06/10 08:05:08;;;;;;;9.87;8.97;;;;;;;23.90;46.83;95924.78;4987737;28;20223;-70
2023/06/10 08:07:33;;;;;;;12.70;9.63;;;;;;;23.84;46.50;95924.44;4988095;28;20784;-71
2023/06/10 08:09:58;;;;;;;15.80;9.63;;;;;;;23.86;46.76;95925.13;4987790;28;20678;-69
2023/06/10 08:12:24;;;;;;;9.40;8.33;;;;;;;24.46;45.31;95918.78;4988156;28;20173;-71
2023/06/10 08:14:49;;;;;;;10.67;7.93;;;;;;;24.35;44.98;95921.72;4988225;28;20196;-71
2023/06/10 08:17:15;;;;;;;12.33;8.70;;;;;;;24.05;45.82;95921.34;4988282;28;20478;-70
2023/06/10 08:19:40;;;;;;;10.10;7.93;;;;;;;24.08;45.41;95920.16;4987641;28;20207;-70
2023/06/10 08:22:05;;;;;;;9.43;8.53;;;;;;;24.14;45.40;95914.13;4987363;28;20200;-71
2023/06/10 08:24:31;;;;;;;15.77;8.97;;;;;;;24.33;45.38;95913.03;4987597;28;20219;-69
2023/06/10 08:26:57;;;;;;;10.90;8.00;;;;;;;23.98;45.51;95914.13;4987305;28;20177;-70
2023/06/10 08:29:23;;;;;;;8.97;8.17;;;;;;;24.18;45.45;95912.00;4987482;28;20610;-70
2023/06/10 08:31:48;;;;;;;8.40;7.30;;;;;;;24.50;44.46;95912.09;4987904;28;20416;-70
2023/06/10 08:34:14;;;;;;;11.33;8.27;;;;;;;24.19;45.37;95910.97;4987515;28;20325;-71
2023/06/10 08:36:39;;;;;;;8.80;7.80;;;;;;;24.58;45.15;95911.25;4987478;28;20187;-70
2023/06/10 08:39:05;;;;;;;10.83;7.63;;;;;;;24.61;43.53;95910.91;4986159;28;20694;-70
2023/06/10 08:41:36;;;;;;;7.63;6.93;;;;;;;24.71;43.25;95911.59;4987238;28;20181;-71
2023/06/10 08:44:22;;;;;;;8.57;7.77;;;;;;;24.64;43.89;95912.44;4987049;28;20243;-70
2023/06/10 08:46:48;;;;;;;16.33;9.37;;;;;;;24.23;44.62;95915.84;4987451;28;20657;-69
2023/06/10 08:49:20;;;;;;;12.13;8.80;;;;;;;24.03;45.86;95911.78;4985794;28;20436;-71
2023/06/10 08:51:49;;;;;;;12.50;8.20;;;;;;;24.48;44.25;95915.94;4987387;28;20407;-69
2023/06/10 08:54:20;;;;;;;8.60;7.70;;;;;;;24.82;41.62;95906.91;4986989;28;20471;-71
2023/06/10 08:56:50;;;;;;;7.93;7.13;;;;;;;25.08;41.56;95910.22;4987870;28;20412;-70
2023/06/10 08:59:16;;;;;;;7.80;7.10;;;;;;;24.77;43.07;95911.94;4989739;28;20428;-71
2023/06/10 09:01:43;;;;;;;8.30;7.50;;;;;;;24.58;43.00;95913.94;4991273;28;20960;-70
2023/06/10 09:04:09;;;;;;;7.40;6.70;;;;;;;24.79;42.52;95909.94;4991448;28;20180;-71
2023/06/10 09:06:35;;;;;;;7.70;7.00;;;;;;;25.01;43.05;95906.56;4991036;28;20416;-71
2023/06/10 09:09:02;;;;;;;11.93;7.33;;;;;;;25.19;42.23;95903.72;4991056;28;20258;-71
2023/06/10 09:11:28;;;;;;;7.60;6.80;;;;;;;24.95;41.10;95917.97;4990821;28;20420;-71
2023/06/10 09:13:53;;;;;;;9.73;8.00;;;;;;;24.84;42.59;95910.25;4990446;28;20960;-70
2023/06/10 09:16:19;;;;;;;13.90;7.80;;;;;;;24.57;42.72;95914.94;4991158;28;20271;-71
2023/06/10 09:18:44;;;;;;;10.23;7.63;;;;;;;24.62;42.88;95923.34;4991045;28;20390;-70
2023/06/10 09:21:10;;;;;;;7.73;7.03;;;;;;;24.79;42.67;95918.81;4990988;28;20185;-71
2023/06/10 09:23:36;;;;;;;9.23;7.50;;;;;;;24.83;42.74;95913.97;4990455;28;20284;-70
2023/06/10 09:26:04;;;;;;;9.80;8.33;;;;;;;24.22;44.62;95907.97;4990735;28;20189;-71
2023/06/10 09:28:30;;;;;;;9.00;7.97;;;;;;;24.67;43.31;95914.78;4991938;28;20411;-71
2023/06/10 09:31:05;;;;;;;8.57;7.70;;;;;;;24.29;43.10;95912.50;4991662;28;20458;-72
2023/06/10 09:33:31;;;;;;;10.00;8.37;;;;;;;24.57;42.96;95906.91;4991642;28;20180;-70
2023/06/10 09:36:00;;;;;;;8.30;7.50;;;;;;;24.83;42.10;95908.59;4990709;28;20463;-72
2023/06/10 09:38:30;;;;;;;13.63;8.30;;;;;;;25.77;40.13;95904.38;4990970;28;20423;-71
2023/06/10 09:40:56;;;;;;;7.73;6.97;;;;;;;25.95;39.61;95907.72;4990478;28;20949;-71
2023/06/10 09:43:22;;;;;;;7.33;6.73;;;;;;;25.28;41.01;95912.63;4990344;28;20550;-70
2023/06/10 09:45:49;;;;;;;13.90;7.93;;;;;;;25.34;41.25;95918.13;4988007;28;20181;-70
2023/06/10 09:48:15;;;;;;;8.93;7.47;;;;;;;25.58;40.55;95910.19;4988951;28;20184;-71
2023/06/10 09:50:44;;;;;;;7.50;6.90;;;;;;;24.95;41.76;95915.28;4990162;28;20933;-72
2023/06/10 09:53:10;;;;;;;7.50;6.90;;;;;;;24.43;42.66;95916.41;4990632;28;20254;-71
2023/06/10 09:55:41;;;;;;;10.17;7.93;;;;;;;24.27;43.47;95922.56;4987967;28;20495;-68
2023/06/10 09:58:06;;;;;;;12.57;7.80;;;;;;;24.59;42.38;95922.81;4990184;28;20184;-71
2023/06/10 10:00:33;;;;;;;8.10;7.47;;;;;;;24.39;42.56;95916.91;4989876;28;20446;-71
2023/06/10 10:02:59;;;;;;;8.83;7.70;;;;;;;24.36;42.97;95918.06;4988860;28;20550;-71
2023/06/10 10:05:24;;;;;;;12.90;7.57;;;;;;;24.72;42.54;95920.50;4989788;28;20490;-72
2023/06/10 10:07:51;;;;;;;14.60;7.70;;;;;;;24.66;41.76;95907.72;4989977;28;20920;-71
2023/06/10 10:10:18;;;;;;;13.43;7.80;;;;;;;24.70;41.91;95915.28;4989206;28;20196;-71
2023/06/10 10:12:48;;;;;;;9.43;7.60;;;;;;;24.23;42.40;95913.16;4990269;28;20424;-71
2023/06/10 10:15:17;;;;;;;8.30;6.80;;;;;;;24.11;42.70;95905.59;4989595;28;20828;-71
2023/06/10 10:18:08;;;;;;;11.30;6.37;;;;;;;24.67;41.34;95902.22;4988977;28;20446;-72
2023/06/10 10:20:41;;;;;;;8.43;6.37;;;;;;;25.01;40.03;95917.28;4990019;28;20531;-71
2023/06/10 10:23:09;;;;;;;9.93;7.00;;;;;;;24.74;40.79;95907.75;4989551;28;20436;-70
2023/06/10 10:25:38;;;;;;;8.87;7.10;;;;;;;25.05;40.66;95907.91;4989247;28;20548;-72
2023/06/10 10:28:12;;;;;;;8.00;7.30;;;;;;;25.25;40.78;95918.31;4989433;28;20450;-71
2023/06/10 10:30:46;;;;;;;8.27;6.93;;;;;;;24.81;40.95;95906.06;4989155;28;20654;-71
2023/06/10 10:33:30;;;;;;;7.87;7.27;;;;;;;24.72;41.01;95909.75;4989386;28;20416;-69
2023/06/10 10:35:57;;;;;;;6.73;6.00;;;;;;;25.03;39.31;95911.75;4989148;28;20542;-69
2023/06/10 10:38:24;;;;;;;9.87;6.93;;;;;;;25.22;38.90;95905.22;4989372;28;20438;-70
2023/06/10 10:40:51;;;;;;;9.60;6.43;;;;;;;25.61;38.47;95896.38;4989446;28;21211;-70
2023/06/10 10:43:17;;;;;;;7.60;6.80;;;;;;;25.60;38.69;95897.41;4988993;28;20423;-72
2023/06/10 10:45:46;;;;;;;13.67;6.77;;;;;;;25.47;39.45;95900.66;4988859;28;21281;-73
2023/06/10 10:48:12;;;;;;;7.17;6.57;;;;;;;25.42;39.10;95900.31;4989345;28;20774;-70
2023/06/10 10:50:38;;;;;;;8.47;6.10;;;;;;;24.96;39.29;95897.34;4987927;28;20444;-70
2023/06/10 10:53:05;;;;;;;6.80;6.07;;;;;;;25.33;39.21;95904.88;4989282;28;20458;-71
2023/06/10 10:55:31;;;;;;;6.30;5.70;;;;;;;24.98;38.51;95903.38;4989465;28;20814;-72
2023/06/10 10:58:04;;;;;;;6.80;6.00;;;;;;;25.15;38.34;95903.19;4989754;28;20444;-71
2023/06/10 11:00:38;;;;;;;10.20;6.10;;;;;;;25.43;37.84;95889.41;4989283;28;20432;-71
2023/06/10 11:03:03;;;;;;;6.40;5.70;;;;;;;25.27;38.53;95892.94;4988671;28;20539;-71
2023/06/10 11:05:32;;;;;;;10.10;6.70;;;;;;;24.91;39.17;95895.16;4988749;28;20874;-71
2023/06/10 11:07:57;;;;;;;8.03;7.33;;;;;;;24.69;40.61;95886.78;4988846;28;20251;-70
2023/06/10 11:10:34;;;;;;;8.27;7.43;;;;;;;24.55;40.56;95887.44;4988831;28;20526;-71
2023/06/10 11:13:00;;;;;;;6.70;6.10;;;;;;;24.69;40.14;95884.09;4988450;28;20584;-73
2023/06/10 11:15:28;;;;;;;6.80;6.20;;;;;;;24.43;41.28;95892.25;4985905;28;20495;-71
2023/06/10 11:18:20;;;;;;;6.60;6.03;;;;;;;24.69;40.27;95875.22;4986891;28;20438;-69
2023/06/10 11:20:45;;;;;;;7.93;7.23;;;;;;;24.40;41.01;95881.88;4988436;28;20803;-71
2023/06/10 11:23:44;;;;;;;9.00;6.93;;;;;;;24.47;41.07;95890.09;4988780;28;20479;-71
2023/06/10 11:26:34;;;;;;;6.30;5.80;;;;;;;24.59;40.19;95882.56;4986491;28;20698;-71
2023/06/10 11:28:59;;;;;;;6.87;5.83;;;;;;;24.90;38.88;95893.50;4988519;28;20419;-71